createdAt,value
2018-05-23T00:01:57.707Z,100459.72
2018-05-23T00:04:25.108Z,100457.13
2018-05-23T00:06:52.539Z,100459.36
2018-05-23T00:09:19.925Z,100454.61
2018-05-23T00:11:47.299Z,100460.05
2018-05-23T00:14:14.683Z,100458.66
2018-05-23T00:16:42.881Z,100463.81
2018-05-23T00:19:10.279Z,100469.25
2018-05-23T00:21:37.652Z,100473.05
2018-05-23T00:24:05.031Z,100468.31
2018-05-23T00:26:32.433Z,100467.39
2018-05-23T00:28:59.895Z,100466.64
2018-05-23T00:31:27.268Z,100461.91
2018-05-23T00:33:54.665Z,100460.74
2018-05-23T00:36:22.053Z,100457.36
2018-05-23T00:38:49.439Z,100463.40
2018-05-23T00:41:16.830Z,100468.23
2018-05-23T00:43:44.229Z,100466.19
2018-05-23T00:46:11.625Z,100469.62
2018-05-23T00:48:39.022Z,100470.22
2018-05-23T00:51:06.411Z,100472.02
2018-05-23T00:53:33.795Z,100469.95
2018-05-23T00:56:01.172Z,100472.49
2018-05-23T00:58:28.586Z,100472.23
2018-05-23T01:00:55.958Z,100475.91
2018-05-23T01:03:23.358Z,100468.77
2018-05-23T01:05:50.752Z,100467.37
2018-05-23T01:08:18.149Z,100463.42
2018-05-23T01:10:45.552Z,100466.56
2018-05-23T01:13:12.933Z,100463.98
2018-05-23T01:15:40.315Z,100464.55
2018-05-23T01:18:07.715Z,100457.09
2018-05-23T01:20:35.106Z,100463.35
2018-05-23T01:23:02.495Z,100465.84
2018-05-23T01:25:29.904Z,100460.44
2018-05-23T01:27:57.287Z,100463.66
2018-05-23T01:30:24.680Z,100473.04
2018-05-23T01:32:52.079Z,100476.81
2018-05-23T01:35:19.463Z,100473.20
2018-05-23T01:37:46.841Z,100465.77
2018-05-23T01:40:14.232Z,100467.28
2018-05-23T01:42:41.629Z,100467.15
2018-05-23T01:45:09.039Z,100468.02
2018-05-23T01:47:36.412Z,100464.29
2018-05-23T01:50:03.805Z,100478.73
2018-05-23T01:52:31.179Z,100477.30
2018-05-23T01:54:58.576Z,100486.74
2018-05-23T01:57:25.968Z,100479.38
2018-05-23T01:59:53.392Z,100484.92
2018-05-23T02:02:20.778Z,100475.69
2018-05-23T02:04:48.167Z,100476.05
2018-05-23T02:07:15.554Z,100484.25
2018-05-23T02:09:42.943Z,100483.77
2018-05-23T02:12:10.325Z,100483.57
2018-05-23T02:14:37.768Z,100483.34
2018-05-23T02:17:05.157Z,100487.48
2018-05-23T02:19:32.558Z,100479.83
2018-05-23T02:22:00.885Z,100484.02
2018-05-23T02:24:28.293Z,100487.34
2018-05-23T02:26:55.684Z,100485.61
2018-05-23T02:29:23.080Z,100485.38
2018-05-23T02:31:50.482Z,100484.70
2018-05-23T02:34:17.856Z,100491.73
2018-05-23T02:36:45.250Z,100488.30
2018-05-23T02:39:12.659Z,100487.27
2018-05-23T02:41:40.068Z,100482.91
2018-05-23T02:44:07.461Z,100483.05
2018-05-23T02:46:34.864Z,100488.00
2018-05-23T02:49:02.267Z,100487.27
2018-05-23T02:51:29.636Z,100495.63
2018-05-23T02:53:57.035Z,100493.06
2018-05-23T02:56:24.419Z,100486.95
2018-05-23T02:58:51.814Z,100489.84
2018-05-23T03:01:19.204Z,100496.12
2018-05-23T03:03:46.602Z,100497.91
2018-05-23T03:06:13.972Z,100500.34
2018-05-23T03:08:41.375Z,100504.81
2018-05-23T03:11:08.782Z,100500.56
2018-05-23T03:13:36.160Z,100501.30
2018-05-23T03:16:03.561Z,100508.84
2018-05-23T03:18:30.949Z,100507.41
2018-05-23T03:20:58.344Z,100505.45
2018-05-23T03:23:25.751Z,100509.07
2018-05-23T03:25:53.168Z,100511.47
2018-05-23T03:28:20.529Z,100514.16
2018-05-23T03:30:47.920Z,100511.05
2018-05-23T03:33:15.304Z,100518.19
2018-05-23T03:35:42.705Z,100516.11
2018-05-23T03:38:10.086Z,100518.77
2018-05-23T03:40:37.480Z,100520.09
2018-05-23T03:43:04.843Z,100517.70
2018-05-23T03:45:32.245Z,100518.05
2018-05-23T03:47:59.619Z,100523.94
2018-05-23T03:50:27.007Z,100523.91
2018-05-23T03:52:54.403Z,100526.99
2018-05-23T03:55:21.867Z,100526.48
2018-05-23T03:57:49.168Z,100528.55
2018-05-23T04:00:28.112Z,100533.94
2018-05-23T04:03:07.121Z,100535.16
2018-05-23T04:05:46.334Z,100544.48
2018-05-23T04:08:13.712Z,100548.83
2018-05-23T04:10:41.137Z,100541.34
2018-05-23T04:13:08.501Z,100539.27
2018-05-23T04:15:35.911Z,100540.61
2018-05-23T04:18:03.313Z,100544.42
2018-05-23T04:20:30.724Z,100547.53
2018-05-23T04:22:58.109Z,100549.19
2018-05-23T04:25:25.502Z,100556.78
2018-05-23T04:27:52.877Z,100565.48
2018-05-23T04:30:20.264Z,100562.08
2018-05-23T04:32:47.648Z,100567.92
2018-05-23T04:35:15.038Z,100571.16
2018-05-23T04:37:42.461Z,100575.70
2018-05-23T04:40:09.848Z,100574.16
2018-05-23T04:42:37.232Z,100582.55
2018-05-23T04:45:04.619Z,100576.05
2018-05-23T04:47:32.001Z,100578.74
2018-05-23T04:49:59.380Z,100580.70
2018-05-23T04:52:26.756Z,100582.87
2018-05-23T04:54:54.149Z,100590.69
2018-05-23T04:57:21.537Z,100596.11
2018-05-23T04:59:48.919Z,100596.91
2018-05-23T05:02:16.309Z,100591.92
2018-05-23T05:04:43.713Z,100596.76
2018-05-23T05:07:11.080Z,100605.45
2018-05-23T05:09:38.477Z,100605.96
2018-05-23T05:12:05.851Z,100611.12
2018-05-23T05:14:33.257Z,100610.72
2018-05-23T05:17:00.659Z,100609.51
2018-05-23T05:19:28.052Z,100611.55
2018-05-23T05:21:55.441Z,100617.20
2018-05-23T05:24:22.819Z,100618.37
2018-05-23T05:26:50.208Z,100625.67
2018-05-23T05:29:17.614Z,100624.82
2018-05-23T05:31:45.045Z,100626.17
2018-05-23T05:34:12.411Z,100632.80
2018-05-23T05:36:39.810Z,100636.47
2018-05-23T05:39:07.208Z,100637.72
2018-05-23T05:41:34.613Z,100640.09
2018-05-23T05:44:02.014Z,100642.97
2018-05-23T05:46:29.403Z,100643.70
2018-05-23T05:48:57.703Z,100647.37
2018-05-23T05:51:25.089Z,100642.51
2018-05-23T05:53:53.669Z,100647.77
2018-05-23T05:56:21.094Z,100640.69
2018-05-23T05:58:48.470Z,100646.19
2018-05-23T06:01:15.874Z,100650.84
2018-05-23T06:03:43.255Z,100655.92
2018-05-23T06:06:10.653Z,100668.44
2018-05-23T06:08:38.027Z,100673.58
2018-05-23T06:11:05.411Z,100674.64
2018-05-23T06:13:32.798Z,100678.49
2018-05-23T06:16:00.187Z,100678.48
2018-05-23T06:18:27.576Z,100674.84
2018-05-23T06:20:55.036Z,100677.89
2018-05-23T06:23:22.495Z,100676.77
2018-05-23T06:25:49.880Z,100672.56
2018-05-23T06:28:17.267Z,100673.71
2018-05-23T06:30:44.659Z,100672.77
2018-05-23T06:33:12.042Z,100677.92
2018-05-23T06:35:39.436Z,100675.52
2018-05-23T06:38:06.811Z,100684.44
2018-05-23T06:40:34.202Z,100679.99
2018-05-23T06:43:01.609Z,100683.94
2018-05-23T06:45:29.003Z,100684.72
2018-05-23T06:47:56.434Z,100682.81
2018-05-23T06:50:23.844Z,100685.77
2018-05-23T06:52:51.233Z,100682.96
2018-05-23T06:55:18.621Z,100690.42
2018-05-23T06:57:46.002Z,100684.63
2018-05-23T07:00:13.407Z,100682.83
2018-05-23T07:02:40.779Z,100689.06
2018-05-23T07:05:08.191Z,100694.30
2018-05-23T07:07:35.580Z,100697.29
2018-05-23T07:10:02.959Z,100702.88
2018-05-23T07:12:30.348Z,100701.34
2018-05-23T07:14:57.730Z,100705.40
2018-05-23T07:17:25.125Z,100710.00
2018-05-23T07:19:52.502Z,100713.00
2018-05-23T07:22:19.958Z,100720.98
2018-05-23T07:24:47.382Z,100717.44
2018-05-23T07:27:14.812Z,100726.67
2018-05-23T07:29:42.201Z,100726.97
2018-05-23T07:32:09.586Z,100725.96
2018-05-23T07:34:36.968Z,100728.20
2018-05-23T07:37:04.372Z,100723.06
2018-05-23T07:39:31.752Z,100727.95
2018-05-23T07:41:59.209Z,100729.91
2018-05-23T07:44:26.582Z,100727.06
2018-05-23T07:46:53.971Z,100731.36
2018-05-23T07:49:21.353Z,100732.89
2018-05-23T07:51:48.766Z,100730.98
2018-05-23T07:54:16.145Z,100727.89
2018-05-23T07:56:43.580Z,100732.32
2018-05-23T07:59:10.939Z,100733.81
2018-05-23T08:01:38.323Z,100739.64
2018-05-23T08:04:05.782Z,100734.81
2018-05-23T08:06:33.159Z,100750.52
2018-05-23T08:09:00.553Z,100749.83
2018-05-23T08:11:27.936Z,100751.52
2018-05-23T08:13:55.320Z,100750.77
2018-05-23T08:16:22.743Z,100742.25
2018-05-23T08:18:50.120Z,100750.03
2018-05-23T08:21:17.508Z,100749.66
2018-05-23T08:23:44.892Z,100749.91
2018-05-23T08:26:12.293Z,100755.56
2018-05-23T08:28:39.667Z,100752.53
2018-05-23T08:31:07.056Z,100758.77
2018-05-23T08:33:34.460Z,100761.36
2018-05-23T08:36:01.848Z,100751.05
2018-05-23T08:38:29.228Z,100750.08
2018-05-23T08:40:56.611Z,100752.27
2018-05-23T08:43:24.016Z,100752.61
2018-05-23T08:45:51.414Z,100753.52
2018-05-23T08:48:18.805Z,100755.00
2018-05-23T08:50:46.205Z,100758.09
2018-05-23T08:53:13.589Z,100765.61
2018-05-23T08:55:40.972Z,100764.97
2018-05-23T08:58:08.352Z,100767.12
2018-05-23T09:00:35.737Z,100771.20
2018-05-23T09:03:03.150Z,100773.32
2018-05-23T09:05:30.645Z,100777.59
2018-05-23T09:07:58.032Z,100780.58
2018-05-23T09:10:25.411Z,100774.98
2018-05-23T09:12:52.807Z,100770.55
2018-05-23T09:15:20.184Z,100773.53
2018-05-23T09:17:47.585Z,100771.86
2018-05-23T09:20:14.963Z,100773.28
2018-05-23T09:22:42.361Z,100774.02
2018-05-23T09:25:09.744Z,100775.47
2018-05-23T09:27:37.140Z,100777.79
2018-05-23T09:30:04.561Z,100780.13
2018-05-23T09:32:31.945Z,100780.33
2018-05-23T09:34:59.330Z,100775.27
2018-05-23T09:37:26.728Z,100776.39
2018-05-23T09:39:54.108Z,100774.52
2018-05-23T09:42:21.499Z,100771.39
2018-05-23T09:44:48.889Z,100774.11
2018-05-23T09:47:16.284Z,100778.60
2018-05-23T09:49:43.670Z,100779.36
2018-05-23T09:52:11.072Z,100772.02
2018-05-23T09:54:38.452Z,100770.39
2018-05-23T09:57:05.860Z,100772.17
2018-05-23T09:59:33.242Z,100762.94
2018-05-23T10:02:00.636Z,100763.92
2018-05-23T10:04:28.030Z,100767.45
2018-05-23T10:06:55.419Z,100760.80
2018-05-23T10:09:22.803Z,100757.80
2018-05-23T10:11:50.204Z,100761.66
2018-05-23T10:14:17.574Z,100754.48
2018-05-23T10:16:44.963Z,100763.79
2018-05-23T10:19:12.343Z,100759.04
2018-05-23T10:21:39.734Z,100762.91
2018-05-23T10:24:07.139Z,100753.91
2018-05-23T10:26:34.526Z,100764.16
2018-05-23T10:29:01.922Z,100760.22
2018-05-23T10:31:29.314Z,100756.80
2018-05-23T10:33:56.711Z,100761.63
2018-05-23T10:36:24.105Z,100766.34
2018-05-23T10:38:51.476Z,100761.92
2018-05-23T10:41:18.912Z,100768.94
2018-05-23T10:43:46.291Z,100770.20
2018-05-23T10:46:13.688Z,100764.47
2018-05-23T10:48:41.068Z,100771.02
2018-05-23T10:51:08.463Z,100767.88
2018-05-23T10:53:35.843Z,100773.17
2018-05-23T10:56:03.237Z,100770.61
2018-05-23T10:58:30.622Z,100764.88
2018-05-23T11:00:58.026Z,100762.85
2018-05-23T11:03:25.395Z,100762.03
2018-05-23T11:05:52.839Z,100760.13
2018-05-23T11:08:20.162Z,100762.59
2018-05-23T11:10:47.538Z,100753.45
2018-05-23T11:13:14.925Z,100761.02
2018-05-23T11:15:42.309Z,100758.14
2018-05-23T11:18:10.516Z,100747.62
2018-05-23T11:20:37.897Z,100749.66
2018-05-23T11:23:05.309Z,100748.30
2018-05-23T11:25:32.723Z,100749.21
2018-05-23T11:28:00.152Z,100751.55
2018-05-23T11:30:27.547Z,100740.09
2018-05-23T11:32:54.960Z,100738.58
2018-05-23T11:35:22.348Z,100738.02
2018-05-23T11:37:49.732Z,100742.10
2018-05-23T11:40:17.107Z,100736.73
2018-05-23T11:42:44.497Z,100736.31
2018-05-23T11:45:11.891Z,100732.05
2018-05-23T11:47:39.277Z,100738.26
2018-05-23T11:50:06.668Z,100734.36
2018-05-23T11:52:34.081Z,100719.11
2018-05-23T11:55:01.453Z,100720.84
2018-05-23T11:57:28.852Z,100712.14
2018-05-23T11:59:56.242Z,100710.84
2018-05-23T12:02:23.636Z,100710.73
2018-05-23T12:04:51.024Z,100701.66
2018-05-23T12:07:18.428Z,100696.58
2018-05-23T12:09:45.806Z,100695.78
2018-05-23T12:12:13.196Z,100693.78
2018-05-23T12:14:40.575Z,100693.91
2018-05-23T12:17:07.966Z,100695.01
2018-05-23T12:19:35.344Z,100685.80
2018-05-23T12:22:02.733Z,100683.14
2018-05-23T12:24:30.115Z,100680.48
2018-05-23T12:26:57.504Z,100670.00
2018-05-23T12:29:24.888Z,100671.88
2018-05-23T12:31:52.292Z,100677.75
2018-05-23T12:34:19.677Z,100665.53
2018-05-23T12:36:47.107Z,100670.38
2018-05-23T12:39:14.489Z,100670.61
2018-05-23T12:41:41.904Z,100673.48
2018-05-23T12:44:09.299Z,100663.98
2018-05-23T12:46:36.698Z,100667.30
2018-05-23T12:49:04.077Z,100661.66
2018-05-23T12:51:31.464Z,100665.27
2018-05-23T12:53:58.849Z,100660.05
2018-05-23T12:56:26.236Z,100669.44
2018-05-23T12:58:53.619Z,100669.13
2018-05-23T13:01:21.005Z,100666.11
2018-05-23T13:03:48.383Z,100666.52
2018-05-23T13:06:15.778Z,100673.28
2018-05-23T13:08:43.163Z,100669.27
2018-05-23T13:11:10.541Z,100661.42
2018-05-23T13:13:37.936Z,100654.92
2018-05-23T13:16:05.325Z,100655.58
2018-05-23T13:18:32.715Z,100655.30
2018-05-23T13:21:00.096Z,100640.66
2018-05-23T13:23:27.488Z,100641.95
2018-05-23T13:25:54.931Z,100637.73
2018-05-23T13:28:22.261Z,100647.49
2018-05-23T13:30:49.658Z,100636.53
2018-05-23T13:33:17.064Z,100639.82
2018-05-23T13:35:44.456Z,100641.33
2018-05-23T13:38:11.842Z,100641.31
2018-05-23T13:40:39.220Z,100641.08
2018-05-23T13:43:06.603Z,100636.78
2018-05-23T13:45:34.975Z,100631.34
2018-05-23T13:48:02.356Z,100630.79
2018-05-23T13:50:29.737Z,100632.53
2018-05-23T13:52:57.126Z,100630.45
2018-05-23T13:55:24.508Z,100625.37
2018-05-23T13:57:51.919Z,100617.22
2018-05-23T14:00:19.313Z,100617.44
2018-05-23T14:02:46.708Z,100621.53
2018-05-23T14:05:14.084Z,100622.66
2018-05-23T14:07:42.290Z,100626.13
2018-05-23T14:10:09.687Z,100625.79
2018-05-23T14:12:37.093Z,100625.64
2018-05-23T14:15:04.475Z,100623.52
2018-05-23T14:17:32.766Z,100623.86
2018-05-23T14:20:00.159Z,100622.15
2018-05-23T14:22:27.551Z,100614.86
2018-05-23T14:24:54.953Z,100610.53
2018-05-23T14:27:22.363Z,100605.69
2018-05-23T14:29:49.764Z,100611.05
2018-05-23T14:32:17.155Z,100612.22
2018-05-23T14:34:44.532Z,100613.14
2018-05-23T14:37:11.915Z,100620.43
2018-05-23T14:39:39.301Z,100655.36
2018-05-23T14:42:06.687Z,100665.69
2018-05-23T14:44:34.071Z,100677.06
2018-05-23T14:47:01.467Z,100673.15
2018-05-23T14:49:28.845Z,100677.02
2018-05-23T14:51:56.252Z,100673.02
2018-05-23T14:54:23.635Z,100688.09
2018-05-23T14:56:51.024Z,100699.45
2018-05-23T14:59:18.412Z,100702.09
2018-05-23T15:01:45.796Z,100700.55
2018-05-23T15:04:13.197Z,100710.65
2018-05-23T15:06:40.594Z,100713.06
2018-05-23T15:09:07.987Z,100718.05
2018-05-23T15:11:35.368Z,100708.81
2018-05-23T15:14:02.763Z,100711.94
2018-05-23T15:16:30.152Z,100714.00
2018-05-23T15:18:57.544Z,100699.48
2018-05-23T15:21:24.950Z,100698.13
2018-05-23T15:23:52.334Z,100700.45
2018-05-23T15:26:19.755Z,100693.61
2018-05-23T15:28:47.146Z,100704.33
2018-05-23T15:31:14.535Z,100705.15
2018-05-23T15:33:41.911Z,100698.59
2018-05-23T15:36:09.312Z,100706.38
2018-05-23T15:38:36.691Z,100711.87
2018-05-23T15:41:04.076Z,100714.49
2018-05-23T15:43:31.463Z,100715.41
2018-05-23T15:45:58.843Z,100714.96
2018-05-23T15:48:26.228Z,100719.65
2018-05-23T15:50:54.499Z,100714.02
2018-05-23T15:53:21.896Z,100716.06
2018-05-23T15:55:49.268Z,100720.58
2018-05-23T15:58:16.671Z,100722.72
2018-05-23T16:00:44.047Z,100721.95
2018-05-23T16:03:11.432Z,100723.70
2018-05-23T16:05:38.819Z,100728.63
2018-05-23T16:08:06.223Z,100728.41
2018-05-23T16:10:33.600Z,100726.59
2018-05-23T16:13:01.004Z,100733.38
2018-05-23T16:15:28.374Z,100734.54
2018-05-23T16:17:55.766Z,100732.61
2018-05-23T16:20:23.144Z,100735.22
2018-05-23T16:22:50.541Z,100731.41
2018-05-23T16:25:17.922Z,100733.44
2018-05-23T16:27:45.334Z,100732.62
2018-05-23T16:30:12.719Z,100732.72
2018-05-23T16:32:40.117Z,100741.93
2018-05-23T16:35:07.490Z,100743.79
2018-05-23T16:37:34.874Z,100746.74
2018-05-23T16:40:02.253Z,100749.21
2018-05-23T16:42:29.651Z,100759.68
2018-05-23T16:44:57.033Z,100761.98
2018-05-23T16:47:24.420Z,100763.66
2018-05-23T16:49:51.812Z,100761.57
2018-05-23T16:52:19.225Z,100765.77
2018-05-23T16:54:46.599Z,100765.38
2018-05-23T16:57:13.996Z,100764.26
2018-05-23T16:59:41.384Z,100765.20
2018-05-23T17:02:09.400Z,100770.59
2018-05-23T17:04:36.793Z,100771.89
2018-05-23T17:07:04.530Z,100774.80
2018-05-23T17:09:32.655Z,100769.70
2018-05-23T17:12:00.032Z,100782.63
2018-05-23T17:14:27.437Z,100781.53
2018-05-23T17:16:54.812Z,100779.50
2018-05-23T17:19:22.219Z,100781.12
2018-05-23T17:21:49.601Z,100782.85
2018-05-23T17:24:16.996Z,100789.14
2018-05-23T17:26:44.384Z,100788.08
2018-05-23T17:29:11.781Z,100796.02
2018-05-23T17:31:39.147Z,100791.48
2018-05-23T17:34:06.545Z,100797.36
2018-05-23T17:36:34.236Z,100802.03
2018-05-23T17:39:01.620Z,100801.69
2018-05-23T17:41:29.023Z,100810.44
2018-05-23T17:43:56.426Z,100807.64
2018-05-23T17:46:23.838Z,100802.36
2018-05-23T17:48:51.235Z,100802.05
2018-05-23T17:51:18.629Z,100803.08
2018-05-23T17:53:46.008Z,100805.49
2018-05-23T17:56:13.412Z,100802.78
2018-05-23T17:58:40.810Z,100797.18
2018-05-23T18:01:08.213Z,100797.03
2018-05-23T18:03:35.583Z,100793.20
2018-05-23T18:06:03.171Z,100799.52
2018-05-23T18:08:30.364Z,100793.27
2018-05-23T18:10:57.756Z,100794.07
2018-05-23T18:13:25.145Z,100797.96
2018-05-23T18:15:52.552Z,100799.88
2018-05-23T18:18:19.963Z,100796.41
2018-05-23T18:20:47.352Z,100801.09
2018-05-23T18:23:14.737Z,100806.37
2018-05-23T18:25:42.129Z,100807.70
2018-05-23T18:28:09.524Z,100807.91
2018-05-23T18:30:36.915Z,100806.70
2018-05-23T18:33:04.297Z,100811.38
2018-05-23T18:35:31.681Z,100805.11
2018-05-23T18:37:59.066Z,100816.86
2018-05-23T18:40:26.464Z,100813.80
2018-05-23T18:42:53.851Z,100811.61
2018-05-23T18:45:23.247Z,100819.81
2018-05-23T18:47:52.546Z,100816.31
2018-05-23T18:50:21.604Z,100817.50
2018-05-23T18:52:50.068Z,100817.08
2018-05-23T18:55:20.631Z,100823.58
2018-05-23T18:57:58.138Z,100817.30
2018-05-23T19:00:35.754Z,100825.77
2018-05-23T19:03:15.867Z,100828.23
2018-05-23T19:05:44.467Z,100826.27
2018-05-23T19:08:14.989Z,100828.73
2018-05-23T19:10:43.046Z,100829.06
2018-05-23T19:13:12.748Z,100832.46
2018-05-23T19:15:42.673Z,100834.95
2018-05-23T19:18:10.567Z,100841.23
2018-05-23T19:20:38.408Z,100840.75
2018-05-23T19:23:06.599Z,100847.66
2018-05-23T19:25:34.269Z,100842.06
2018-05-23T19:28:29.851Z,100844.20
2018-05-23T19:30:58.529Z,100846.13
2018-05-23T19:33:29.381Z,100847.23
2018-05-23T19:35:57.913Z,100851.86
2018-05-23T19:38:29.228Z,100847.95
2018-05-23T19:40:59.273Z,100843.45
2018-05-23T19:43:27.770Z,100845.35
2018-05-23T19:45:56.209Z,100849.58
2018-05-23T19:48:25.942Z,100845.62
2018-05-23T19:50:54.483Z,100847.89
2018-05-23T19:53:24.174Z,100846.77
2018-05-23T19:55:51.740Z,100844.80
2018-05-23T19:58:19.178Z,100847.16
2018-05-23T20:00:49.507Z,100842.17
2018-05-23T20:03:17.053Z,100845.41
2018-05-23T20:05:50.054Z,100844.59
2018-05-23T20:08:18.235Z,100840.81
2018-05-23T20:10:46.012Z,100843.87
2018-05-23T20:13:13.795Z,100842.91
2018-05-23T20:15:43.432Z,100852.38
2018-05-23T20:18:12.583Z,100846.20
2018-05-23T20:20:40.913Z,100845.45
2018-05-23T20:23:09.780Z,100843.48
2018-05-23T20:25:39.360Z,100844.02
2018-05-23T20:28:12.249Z,100851.13
2018-05-23T20:30:39.701Z,100851.65
2018-05-23T20:33:09.023Z,100856.33
2018-05-23T20:35:37.785Z,100856.61
2018-05-23T20:38:05.738Z,100857.66
2018-05-23T20:40:35.760Z,100857.30
2018-05-23T20:43:04.744Z,100857.75
2018-05-23T20:45:34.643Z,100851.32
2018-05-23T20:48:04.389Z,100854.12
2018-05-23T20:50:34.952Z,100851.78
2018-05-23T20:53:02.990Z,100855.33
2018-05-23T20:55:31.299Z,100850.84
2018-05-23T20:58:02.645Z,100854.23
2018-05-23T21:00:30.055Z,100856.39
2018-05-23T21:02:58.582Z,100863.00
2018-05-23T21:05:28.400Z,100858.66
2018-05-23T21:07:55.776Z,100857.89
2018-05-23T21:10:24.175Z,100861.03
2018-05-23T21:12:53.122Z,100863.25
2018-05-23T21:15:20.633Z,100863.63
2018-05-23T21:17:48.759Z,100864.78
2018-05-23T21:20:18.826Z,100863.61
2018-05-23T21:22:46.807Z,100864.21
2018-05-23T21:25:14.939Z,100862.62
2018-05-23T21:27:43.389Z,100862.41
2018-05-23T21:30:11.060Z,100860.05
2018-05-23T21:32:39.085Z,100859.11
2018-05-23T21:35:07.909Z,100858.88
2018-05-23T21:37:35.643Z,100858.81
2018-05-23T21:40:03.952Z,100855.92
2018-05-23T21:42:31.645Z,100850.51
2018-05-23T21:45:00.273Z,100852.48
2018-05-23T21:47:30.619Z,100853.98
2018-05-23T21:49:59.335Z,100851.02
2018-05-23T21:52:27.173Z,100861.30
2018-05-23T21:55:03.340Z,100857.42
2018-05-23T21:57:34.657Z,100855.66
2018-05-23T22:00:02.265Z,100862.95
2018-05-23T22:02:30.446Z,100860.77
2018-05-23T22:04:58.619Z,100863.97
2018-05-23T22:07:27.001Z,100858.75
2018-05-23T22:09:55.594Z,100853.67
2018-05-23T22:12:23.384Z,100854.34
2018-05-23T22:14:51.396Z,100853.42
2018-05-23T22:17:20.800Z,100850.90
2018-05-23T22:20:07.840Z,100843.13
2018-05-23T22:22:43.413Z,100840.16
2018-05-23T22:25:22.358Z,100838.69
2018-05-23T22:27:54.003Z,100833.75
2018-05-23T22:30:21.548Z,100835.52
2018-05-23T22:32:53.873Z,100827.54
2018-05-23T22:35:28.376Z,100825.36
2018-05-23T22:37:55.757Z,100820.05
2018-05-23T22:40:23.153Z,100810.66
2018-05-23T22:42:50.546Z,100817.75
2018-05-23T22:45:18.103Z,100811.53
2018-05-23T22:47:45.469Z,100811.70
2018-05-23T22:50:12.880Z,100816.37
2018-05-23T22:52:40.263Z,100810.92
2018-05-23T22:55:07.672Z,100813.80
2018-05-23T22:57:35.103Z,100813.73
2018-05-23T23:00:02.568Z,100823.70
2018-05-23T23:02:29.945Z,100824.55
2018-05-23T23:04:58.001Z,100821.33
2018-05-23T23:07:25.389Z,100829.39
2018-05-23T23:09:53.856Z,100825.41
2018-05-23T23:12:21.245Z,100831.77
2018-05-23T23:14:48.644Z,100830.77
2018-05-23T23:17:16.108Z,100824.88
2018-05-23T23:19:43.499Z,100823.30
2018-05-23T23:22:10.873Z,100822.20
2018-05-23T23:24:38.295Z,100820.02
2018-05-23T23:27:05.690Z,100820.72
2018-05-23T23:29:33.112Z,100819.90
2018-05-23T23:32:00.493Z,100817.55
2018-05-23T23:34:27.880Z,100821.67
2018-05-23T23:36:55.270Z,100824.34
2018-05-23T23:39:22.664Z,100831.73
2018-05-23T23:41:50.866Z,100835.11
2018-05-23T23:44:18.278Z,100830.25
2018-05-23T23:46:45.684Z,100822.34
2018-05-23T23:49:13.101Z,100821.84
2018-05-23T23:51:40.734Z,100833.55
2018-05-23T23:54:07.961Z,100828.97
2018-05-23T23:56:35.284Z,100832.95
2018-05-23T23:59:02.694Z,100833.56
